createdAt,value
2022-10-04T00:04:04.167Z,100
2022-10-04T00:19:21.170Z,100
2022-10-04T00:34:38.109Z,100
2022-10-04T00:49:54.121Z,100
2022-10-04T01:05:11.063Z,100
2022-10-04T01:20:27.064Z,100
2022-10-04T01:35:43.009Z,100
2022-10-04T01:36:24.898Z,100
2022-10-04T01:51:01.027Z,100
2022-10-04T02:06:18.986Z,100
2022-10-04T02:21:35.967Z,100
2022-10-04T02:36:52.033Z,100
2022-10-04T02:52:07.904Z,100
2022-10-04T03:07:24.881Z,100
2022-10-04T03:22:44.857Z,100
2022-10-04T03:37:56.822Z,100
2022-10-04T03:53:13.805Z,100
2022-10-04T04:08:31.779Z,100
2022-10-04T04:23:48.776Z,100
2022-10-04T04:39:04.730Z,100
2022-10-04T04:54:20.665Z,100
2022-10-04T05:09:36.700Z,100
2022-10-04T05:24:52.619Z,100
2022-10-04T05:40:09.630Z,100
2022-10-04T05:55:27.563Z,100
2022-10-04T06:10:44.575Z,100
2022-10-04T06:26:00.513Z,100
2022-10-04T06:41:16.565Z,100
2022-10-04T06:56:33.462Z,100
2022-10-04T07:11:49.471Z,100
2022-10-04T07:27:05.491Z,99.5
2022-10-04T07:42:22.408Z,99
2022-10-04T07:57:40.350Z,100
2022-10-04T08:12:57.342Z,89.5
2022-10-04T08:28:13.365Z,85.5
2022-10-04T08:43:29.287Z,84
2022-10-04T08:58:46.223Z,82
2022-10-04T09:14:02.205Z,76.5
2022-10-04T09:29:19.189Z,72.5
2022-10-04T09:44:36.128Z,73
2022-10-04T09:59:54.122Z,72.5
2022-10-04T10:15:10.065Z,70
2022-10-04T10:30:26.057Z,66.5
2022-10-04T10:45:42.009Z,65
2022-10-04T11:00:59.008Z,63.5
2022-10-04T11:16:15.030Z,61
2022-10-04T11:31:32.000Z,61
2022-10-04T11:46:49.260Z,61.5
2022-10-04T12:02:05.844Z,60.5
2022-10-04T12:17:21.814Z,60
2022-10-04T12:32:37.777Z,59.5
2022-10-04T12:47:53.758Z,57
2022-10-04T13:03:10.716Z,53.5
2022-10-04T13:18:26.684Z,53.5
2022-10-04T13:33:43.664Z,52.5
2022-10-04T13:49:00.616Z,50.5
2022-10-04T14:04:17.582Z,48
2022-10-04T14:19:33.572Z,48.5
2022-10-04T14:34:49.513Z,46.5
2022-10-04T14:50:05.513Z,46.5
2022-10-04T15:05:23.465Z,46
2022-10-04T15:20:39.451Z,45
2022-10-04T15:35:55.392Z,46
2022-10-04T15:51:11.428Z,49
2022-10-04T16:06:29.330Z,53.5
2022-10-04T16:21:46.329Z,56.5
2022-10-04T16:37:03.296Z,57
2022-10-04T16:52:19.281Z,59.5
2022-10-04T17:07:36.196Z,65.5
2022-10-04T17:22:52.210Z,67.5
2022-10-04T17:38:08.177Z,71.5
2022-10-04T17:53:25.139Z,74
2022-10-04T18:08:43.118Z,77
2022-10-04T18:24:00.098Z,82
2022-10-04T18:39:16.060Z,87
2022-10-04T18:54:31.992Z,92.5
2022-10-04T19:09:48.999Z,98.5
2022-10-04T19:25:04.935Z,100
2022-10-04T19:40:20.938Z,100
2022-10-04T19:55:37.878Z,100
2022-10-04T20:10:55.886Z,100
2022-10-04T20:26:12.821Z,100
2022-10-04T20:41:28.818Z,100
2022-10-04T20:56:45.034Z,100
2022-10-04T21:12:01.764Z,100
2022-10-04T21:27:17.705Z,100
2022-10-04T21:42:34.716Z,100
2022-10-04T21:57:51.716Z,100
2022-10-04T22:13:09.662Z,100
2022-10-04T22:28:25.604Z,100
2022-10-04T22:43:41.600Z,100
2022-10-04T22:58:57.546Z,100
2022-10-04T23:14:14.525Z,100
2022-10-04T23:29:30.519Z,100
2022-10-04T23:44:47.459Z,100
